Tuesday, October 16, 2018, 6:47 PM EDT
Back to Local

KFZY, Fulton Oswego County Airport

Location: Fulton, NY, United States Lat: 43.35
Local Time: 6:47 PM EDT (22:47 GMT) Lon: -76.383
Time Zone: US/Eastern Elev: 475 ft

Show me the last for .
Show Decoded

2018-10-16 17:54 METAR KFZY 162154Z AUTO 19007KT 10SM BKN060 09/01 A2998 RMK AO2 SLP155 T00940006
                 =
2018-10-16 16:54 METAR KFZY 162054Z AUTO 21008G15KT 10SM SCT055 11/00 A2999 RMK AO2 SLP158
                 T01110000 58025 =
2018-10-16 15:54 METAR KFZY 161954Z AUTO 23011KT 10SM SCT048 10/M01 A3002 RMK AO2 SLP168
                 T01001006 =
2018-10-16 14:54 METAR KFZY 161854Z AUTO 24009KT 10SM FEW047 09/M01 A3004 RMK AO2 SLP176
                 T00941011 =
2018-10-16 13:54 METAR KFZY 161754Z AUTO 26012G19KT 10SM SCT045 09/M02 A3007 RMK AO2 SLP183
                 T00891017 10106 20056 58024 =
2018-10-16 12:54 METAR KFZY 161654Z AUTO 25014G20KT 10SM BKN045 08/M02 A3010 RMK AO2 SLP194
                 T00831022 =
2018-10-16 11:54 METAR KFZY 161554Z AUTO 26012G22KT 10SM BKN047 09/M02 A3012 RMK AO2 SLP202
                 T00891022 =
2018-10-16 10:54 METAR KFZY 161454Z AUTO 25011KT 10SM OVC050 09/M01 A3014 RMK AO2 SLP208
                 T00891011 50000 =
2018-10-16 09:54 METAR KFZY 161354Z AUTO 25013KT 10SM OVC049 07/M02 A3014 RMK AO2 SLP209
                 T00721017 =
2018-10-16 08:54 METAR KFZY 161254Z AUTO 23009KT 10SM SCT028 BKN038 OVC046 06/M02 A3014 RMK AO2
                 SLP208 T00561017 =
2018-10-16 08:51 METAR KFZY 161251Z AUTO 23008KT 10SM BKN030 BKN038 OVC046 06/M02 A3014 RMK AO2 =
2018-10-16 08:30 METAR KFZY 161230Z AUTO 23009KT 10SM BKN029 OVC039 06/M02 A3013 RMK AO2
                 T00561017 =
2018-10-16 07:54 METAR KFZY 161154Z AUTO 24008KT 10SM FEW028 OVC047 06/M01 A3012 RMK AO2 RAB09E19
                 SLP202 P0000 60000 70005 T00561011 10078 20056 51009 =
2018-10-16 06:54 METAR KFZY 161054Z AUTO 25010KT 10SM FEW042 OVC050 06/M02 A3012 RMK AO2 SLP201
                 T00561017 $ =
2018-10-16 05:54 METAR KFZY 160954Z AUTO 24008KT 10SM SCT035 BKN043 OVC050 06/M02 A3011 RMK AO2
                 SLP197 T00561017 $ =
2018-10-16 04:54 METAR KFZY 160854Z AUTO 25009KT 10SM FEW036 SCT043 OVC049 06/M02 A3009 RMK AO2
                 SLP192 T00611022 53007 $ =
2018-10-16 03:54 METAR KFZY 160754Z AUTO 24010KT 10SM BKN047 OVC060 07/M02 A3008 RMK AO2 SLP186
                 T00671022 $ =
2018-10-16 02:54 METAR KFZY 160654Z AUTO 28015G24KT 10SM BKN047 BKN055 07/M02 A3007 RMK AO2 PK
                 WND 29026/0606 SLP185 T00721022 $ =
2018-10-16 01:54 METAR KFZY 160554Z AUTO 29015G25KT 10SM SCT049 07/M03 A3007 RMK AO2 PK WND
                 29026/0503 SLP185 60000 T00721028 10122 20067 51020 $ =
2018-10-16 00:54 METAR KFZY 160454Z AUTO 29018G29KT 10SM BKN050 07/M03 A3006 RMK AO2 PK WND
                 28030/0413 SLP182 T00721028 401610061 $ =
2018-10-15 23:54 METAR KFZY 160354Z AUTO 29016G27KT 10SM BKN047 BKN060 08/M03 A3004 RMK AO2 PK
                 WND 30039/0259 SLP175 T00781028 $ =
2018-10-15 22:54 METAR KFZY 160254Z AUTO 28022G36KT 10SM BKN048 OVC060 08/M02 A3002 RMK AO2 PK
                 WND 29037/0239 SLP166 P0000 60000 T00831022 $ =
2018-10-15 21:54 METAR KFZY 160154Z AUTO 29026G35KT 10SM -RA BKN041 OVC060 10/02 A2996 RMK AO2 PK
                 WND 29040/0138 RAB50 PRESRR SLP145 P0000 T01000017 =
2018-10-15 20:54 METAR KFZY 160054Z AUTO 28015G27KT 10SM SCT029 BKN035 OVC060 11/04 A2990 RMK AO2
                 PK WND 28028/0041 RAE21 SLP127 P0000 T01060044 =
2018-10-15 19:54 METAR KFZY 152354Z AUTO 27019G33KT 10SM -RA SCT025 SCT030 OVC042 12/07 A2986 RMK
                 AO2 PK WND 26033/2349 RAB26E36B50 SLP113 P0000 60005 T01220067 10161 20122 53029
                 =
2018-10-15 19:46 METAR KFZY 152346Z AUTO 28011G24KT 10SM BKN026 BKN034 OVC043 13/07 A2986 RMK AO2
                 PK WND 27028/2258 RAB26E36 P0000 T01280072 =
2018-10-15 18:54 METAR KFZY 152254Z AUTO 27017G29KT 10SM FEW024 BKN039 OVC047 13/07 A2982 RMK AO2
                 PK WND 28029/2251 RAB28E38 SLP097 P0000 T01330067 =

Support USWX by starting your Amazon purchase here.